Time;durP1;ratioP1;P1;durP2;ratioP2;P2;SDS_P1;SDS_P2;PMS_P1;PMS_P2;Temp;Humidity;BMP_temperature;BMP_pressure;BME280_temperature;BME280_humidity;BME280_pressure;Samples;Min_cycle;Max_cycle;Signal;HPM_P1;HPM_P2
2023/04/05 00:01:57;;;;;;;2.97;2.67;;;;;;;;;;10290725;28;20061;-68
2023/04/05 00:06:56;;;;;;;3.15;2.92;;;;;;;;;;10291065;28;20115;-68
2023/04/05 00:11:55;;;;;;;1.90;1.80;;;;;;;;;;10309036;28;20041;-68
2023/04/05 00:16:55;;;;;;;2.38;2.20;;;;;;;;;;10309420;28;20363;-68
2023/04/05 00:21:53;;;;;;;2.60;2.40;;;;;;;;;;10290661;28;20091;-68
2023/04/05 00:26:51;;;;;;;2.80;2.35;;;;;;;;;;10292730;28;20072;-68
2023/04/05 00:31:50;;;;;;;13.57;5.22;;;;;;;;;;10292180;28;20072;-69
2023/04/05 00:36:50;;;;;;;9.88;5.72;;;;;;;;;;10297651;28;20045;-68
2023/04/05 00:41:48;;;;;;;2.70;2.47;;;;;;;;;;10299593;28;20080;-68
2023/04/05 00:46:46;;;;;;;2.03;1.92;;;;;;;;;;10286969;28;20047;-68
2023/04/05 00:51:45;;;;;;;1.90;1.80;;;;;;;;;;10293090;28;20051;-69
2023/04/05 00:56:45;;;;;;;1.90;1.80;;;;;;;;;;10291252;28;20068;-68
2023/04/05 01:01:53;;;;;;;2.22;2.00;;;;;;;;;;10290450;28;20471;-68
2023/04/05 01:07:05;;;;;;;2.50;2.30;;;;;;;;;;10289155;28;20072;-68
2023/04/05 01:12:07;;;;;;;2.40;2.30;;;;;;;;;;10289946;28;20432;-68
2023/04/05 01:17:08;;;;;;;4.15;3.70;;;;;;;;;;10293540;28;20060;-68
2023/04/05 01:22:16;;;;;;;6.70;5.47;;;;;;;;;;10300029;28;20087;-69
2023/04/05 01:27:19;;;;;;;12.05;5.32;;;;;;;;;;10302255;28;20064;-68
2023/04/05 01:32:36;;;;;;;4.28;3.15;;;;;;;;;;10297207;28;20069;-69
2023/04/05 01:37:35;;;;;;;2.83;2.60;;;;;;;;;;10301315;28;20084;-69
2023/04/05 01:42:33;;;;;;;5.45;3.63;;;;;;;;;;10295072;28;20089;-69
2023/04/05 01:47:33;;;;;;;3.78;3.47;;;;;;;;;;10292819;28;20514;-68
2023/04/05 01:52:32;;;;;;;3.13;2.80;;;;;;;;;;10290429;28;20047;-68
2023/04/05 01:57:30;;;;;;;2.90;2.70;;;;;;;;;;10306814;28;20079;-69
2023/04/05 02:02:28;;;;;;;3.10;2.80;;;;;;;;;;10296584;28;20080;-69
2023/04/05 02:07:28;;;;;;;3.75;2.72;;;;;;;;;;10291418;28;20081;-69
2023/04/05 02:12:26;;;;;;;2.78;2.58;;;;;;;;;;10297025;28;20082;-69
2023/04/05 02:17:24;;;;;;;23.08;14.57;;;;;;;;;;10292769;28;20455;-69
2023/04/05 02:22:23;;;;;;;41.15;21.88;;;;;;;;;;10295550;28;20098;-69
2023/04/05 02:27:22;;;;;;;38.95;24.95;;;;;;;;;;10292801;28;20069;-69
2023/04/05 02:32:24;;;;;;;7.43;5.93;;;;;;;;;;10304509;28;20107;-69
2023/04/05 02:37:24;;;;;;;4.60;3.35;;;;;;;;;;10293174;28;20064;-69
2023/04/05 02:42:24;;;;;;;18.38;11.32;;;;;;;;;;10293867;28;20087;-69
2023/04/05 02:47:22;;;;;;;18.58;12.13;;;;;;;;;;10293509;28;20065;-69
2023/04/05 02:52:25;;;;;;;26.70;17.40;;;;;;;;;;10298966;28;20462;-68
2023/04/05 02:57:25;;;;;;;30.55;21.27;;;;;;;;;;10292606;28;20565;-69
2023/04/05 03:02:31;;;;;;;22.70;18.45;;;;;;;;;;10297094;28;20080;-69
2023/04/05 03:07:31;;;;;;;19.40;16.33;;;;;;;;;;10291921;28;20514;-69
2023/04/05 03:12:33;;;;;;;19.92;16.83;;;;;;;;;;10298155;28;20080;-68
2023/04/05 03:17:32;;;;;;;24.42;20.23;;;;;;;;;;10290235;28;20080;-69
2023/04/05 03:22:33;;;;;;;68.10;38.92;;;;;;;;;;10299074;28;20107;-69
2023/04/05 03:27:33;;;;;;;23.45;19.33;;;;;;;;;;10298532;28;20163;-69
2023/04/05 03:32:37;;;;;;;36.63;26.63;;;;;;;;;;10289609;28;20067;-69
2023/04/05 03:37:55;;;;;;;26.80;22.17;;;;;;;;;;10290214;28;20081;-70
2023/04/05 03:42:55;;;;;;;26.25;20.02;;;;;;;;;;10296482;28;20084;-70
2023/04/05 03:47:53;;;;;;;38.97;27.70;;;;;;;;;;10296137;28;20076;-69
2023/04/05 03:52:52;;;;;;;43.83;31.55;;;;;;;;;;10294926;28;20055;-69
2023/04/05 03:57:54;;;;;;;36.92;27.35;;;;;;;;;;10289090;28;20083;-69
2023/04/05 04:02:59;;;;;;;29.52;22.23;;;;;;;;;;10295721;28;20092;-70
2023/04/05 04:07:58;;;;;;;38.40;29.45;;;;;;;;;;10294565;28;20049;-70
2023/04/05 04:12:56;;;;;;;28.88;23.38;;;;;;;;;;10290215;28;20077;-69
2023/04/05 04:18:00;;;;;;;25.80;21.52;;;;;;;;;;10293002;28;20099;-70
2023/04/05 04:23:15;;;;;;;23.42;20.00;;;;;;;;;;10290389;28;20081;-69
2023/04/05 04:28:33;;;;;;;18.90;16.38;;;;;;;;;;10300286;28;20076;-69
2023/04/05 04:33:46;;;;;;;19.80;16.77;;;;;;;;;;10290949;28;20072;-70
2023/04/05 04:39:09;;;;;;;19.00;16.83;;;;;;;;;;10292619;28;20099;-69
2023/04/05 04:44:30;;;;;;;18.45;16.58;;;;;;;;;;10287001;28;20087;-70
2023/04/05 04:49:50;;;;;;;40.20;29.73;;;;;;;;;;10291187;28;20498;-69
2023/04/05 04:54:49;;;;;;;20.63;17.02;;;;;;;;;;10291698;28;20068;-69
2023/04/05 04:59:49;;;;;;;27.60;20.13;;;;;;;;;;10289814;28;20072;-69
2023/04/05 05:04:47;;;;;;;28.63;18.80;;;;;;;;;;10303884;28;20044;-72
2023/04/05 05:09:46;;;;;;;16.58;14.02;;;;;;;;;;10338470;28;20048;-72
2023/04/05 05:14:44;;;;;;;20.80;16.85;;;;;;;;;;10291728;28;20069;-72
2023/04/05 05:19:43;;;;;;;16.15;14.45;;;;;;;;;;10295101;28;20071;-72
2023/04/05 05:24:41;;;;;;;16.27;14.60;;;;;;;;;;10293593;28;20502;-72
2023/04/05 05:29:41;;;;;;;18.95;15.80;;;;;;;;;;10298105;28;20072;-71
2023/04/05 05:34:39;;;;;;;21.52;18.48;;;;;;;;;;10294557;28;20071;-71
2023/04/05 05:39:37;;;;;;;17.38;15.15;;;;;;;;;;10292727;28;20083;-72
2023/04/05 05:44:36;;;;;;;13.68;11.50;;;;;;;;;;10292656;28;20119;-72
2023/04/05 05:49:35;;;;;;;21.15;16.85;;;;;;;;;;10286396;28;20092;-71
2023/04/05 05:54:33;;;;;;;15.02;13.48;;;;;;;;;;10282809;28;20197;-70
2023/04/05 05:59:32;;;;;;;15.13;11.80;;;;;;;;;;10294921;28;20515;-70
2023/04/05 06:04:30;;;;;;;15.00;13.52;;;;;;;;;;10295090;28;20478;-70
2023/04/05 06:09:32;;;;;;;17.30;14.13;;;;;;;;;;10292375;28;20069;-70
2023/04/05 06:14:30;;;;;;;14.50;12.57;;;;;;;;;;10293532;28;20060;-70
2023/04/05 06:19:29;;;;;;;22.30;15.55;;;;;;;;;;10287701;28;20068;-70
2023/04/05 06:24:30;;;;;;;34.80;22.00;;;;;;;;;;10287604;28;20079;-69
2023/04/05 06:29:30;;;;;;;32.42;18.73;;;;;;;;;;10288249;28;20076;-70
2023/04/05 06:34:28;;;;;;;16.27;12.32;;;;;;;;;;10290904;28;20073;-70
2023/04/05 06:39:26;;;;;;;13.00;10.27;;;;;;;;;;10291714;28;20087;-70
2023/04/05 06:44:25;;;;;;;15.10;12.98;;;;;;;;;;10292610;28;20083;-70
2023/04/05 06:49:24;;;;;;;15.63;12.95;;;;;;;;;;10293623;28;20068;-71
2023/04/05 06:54:23;;;;;;;14.27;10.40;;;;;;;;;;10292400;28;20063;-70
2023/04/05 06:59:21;;;;;;;11.48;9.40;;;;;;;;;;10292295;28;20447;-69
2023/04/05 07:04:20;;;;;;;21.27;12.70;;;;;;;;;;10292652;28;20462;-69
2023/04/05 07:09:21;;;;;;;26.73;14.55;;;;;;;;;;10291156;28;20068;-69
2023/04/05 07:14:19;;;;;;;22.30;14.38;;;;;;;;;;10292772;28;20075;-69
2023/04/05 07:19:17;;;;;;;22.90;13.40;;;;;;;;;;10287527;28;20478;-70
2023/04/05 07:24:15;;;;;;;15.50;9.70;;;;;;;;;;10286951;28;20595;-69
2023/04/05 07:29:15;;;;;;;12.43;11.00;;;;;;;;;;10292166;28;20701;-70
2023/04/05 07:34:13;;;;;;;20.55;10.35;;;;;;;;;;10290214;28;20075;-70
2023/04/05 07:39:11;;;;;;;9.43;7.93;;;;;;;;;;10290912;28;20079;-70
2023/04/05 07:44:10;;;;;;;9.32;7.70;;;;;;;;;;10289488;28;20068;-70
2023/04/05 07:49:10;;;;;;;13.18;9.43;;;;;;;;;;10290062;28;20072;-70
2023/04/05 07:54:08;;;;;;;10.38;9.32;;;;;;;;;;10289864;28;20459;-70
2023/04/05 07:59:06;;;;;;;15.30;11.55;;;;;;;;;;10290360;28;20068;-69
2023/04/05 08:04:04;;;;;;;12.73;9.32;;;;;;;;;;10289768;28;20079;-69
2023/04/05 08:09:04;;;;;;;8.75;6.63;;;;;;;;;;10288074;28;20083;-69
2023/04/05 08:14:02;;;;;;;13.60;9.23;;;;;;;;;;10290522;28;20072;-69
2023/04/05 08:19:01;;;;;;;8.02;6.47;;;;;;;;;;10289494;28;20576;-69
2023/04/05 08:23:59;;;;;;;7.90;6.20;;;;;;;;;;10289548;28;20075;-69
2023/04/05 08:28:59;;;;;;;11.82;8.45;;;;;;;;;;10289578;28;20080;-70
2023/04/05 08:33:57;;;;;;;13.55;8.25;;;;;;;;;;10289219;28;20494;-69
2023/04/05 08:38:55;;;;;;;11.05;8.57;;;;;;;;;;10289258;28;20090;-70
2023/04/05 08:43:56;;;;;;;12.73;8.55;;;;;;;;;;10289382;28;20156;-70
2023/04/05 08:48:57;;;;;;;7.75;6.95;;;;;;;;;;10289043;28;20060;-70
2023/04/05 08:53:55;;;;;;;7.78;6.78;;;;;;;;;;10288724;28;20069;-70
2023/04/05 08:58:57;;;;;;;8.50;6.60;;;;;;;;;;10288134;28;20099;-70
2023/04/05 09:03:58;;;;;;;6.13;5.47;;;;;;;;;;10288783;28;20076;-70
2023/04/05 09:08:57;;;;;;;7.53;6.53;;;;;;;;;;10289793;28;20071;-70
2023/04/05 09:13:55;;;;;;;6.82;5.05;;;;;;;;;;10294565;28;20049;-70
2023/04/05 09:18:53;;;;;;;5.95;5.35;;;;;;;;;;10288138;28;20100;-70
2023/04/05 09:23:54;;;;;;;16.10;10.43;;;;;;;;;;10289486;28;20083;-69
2023/04/05 09:28:52;;;;;;;10.45;9.35;;;;;;;;;;10288109;28;20429;-70
2023/04/05 09:33:51;;;;;;;7.70;7.00;;;;;;;;;;10288396;28;20064;-70
2023/04/05 09:38:49;;;;;;;11.30;9.75;;;;;;;;;;10293719;28;20483;-69
2023/04/05 09:43:48;;;;;;;23.40;14.65;;;;;;;;;;10289617;28;20072;-70
2023/04/05 09:48:47;;;;;;;7.13;5.60;;;;;;;;;;10291218;28;20072;-69
2023/04/05 09:53:58;;;;;;;6.30;5.35;;;;;;;;;;10298855;28;20037;-68
2023/04/05 09:59:03;;;;;;;5.45;4.90;;;;;;;;;;10328658;28;20419;-69
2023/04/05 10:04:01;;;;;;;8.90;7.47;;;;;;;;;;10299424;28;20057;-69
2023/04/05 10:09:00;;;;;;;10.10;8.80;;;;;;;;;;10294657;28;20075;-69
2023/04/05 10:14:00;;;;;;;8.38;5.68;;;;;;;;;;10293620;28;20079;-70
2023/04/05 10:19:01;;;;;;;5.45;4.97;;;;;;;;;;10294006;28;20525;-70
2023/04/05 10:24:04;;;;;;;6.10;5.50;;;;;;;;;;10295813;28;20068;-70
2023/04/05 10:29:09;;;;;;;7.35;6.57;;;;;;;;;;10297213;28;20076;-70
2023/04/05 10:34:14;;;;;;;6.07;5.47;;;;;;;;;;10294461;28;20509;-70
2023/04/05 10:39:13;;;;;;;5.65;5.05;;;;;;;;;;10297773;28;20318;-70
2023/04/05 10:44:11;;;;;;;6.38;5.60;;;;;;;;;;10292135;28;20068;-70
2023/04/05 10:49:29;;;;;;;9.77;8.18;;;;;;;;;;10292768;28;20068;-68
2023/04/05 10:54:28;;;;;;;7.88;6.18;;;;;;;;;;10293608;28;20060;-69
2023/04/05 10:59:27;;;;;;;6.07;5.53;;;;;;;;;;10293058;28;20104;-69
2023/04/05 11:04:27;;;;;;;7.63;6.05;;;;;;;;;;10293278;28;20095;-69
2023/04/05 11:09:25;;;;;;;6.80;6.20;;;;;;;;;;10292206;28;20075;-69
2023/04/05 11:14:25;;;;;;;7.95;7.05;;;;;;;;;;10291564;28;20068;-69
2023/04/05 11:19:38;;;;;;;9.90;8.18;;;;;;;;;;10294369;28;20064;-69
2023/04/05 11:24:51;;;;;;;7.32;6.45;;;;;;;;;;10285696;28;20478;-69
2023/04/05 11:29:50;;;;;;;8.82;7.30;;;;;;;;;;10289501;28;20067;-70
2023/04/05 11:34:58;;;;;;;8.13;7.32;;;;;;;;;;10289764;28;20083;-69
2023/04/05 11:40:11;;;;;;;18.13;11.95;;;;;;;;;;10288908;28;20084;-69
2023/04/05 11:45:11;;;;;;;9.10;7.75;;;;;;;;;;10289741;28;20540;-69
2023/04/05 11:50:09;;;;;;;8.35;7.45;;;;;;;;;;10291161;28;20075;-69
2023/04/05 11:55:10;;;;;;;11.65;8.32;;;;;;;;;;10291279;28;20095;-70
2023/04/05 12:00:09;;;;;;;7.70;6.97;;;;;;;;;;10290363;28;20072;-70
2023/04/05 12:05:09;;;;;;;10.88;8.88;;;;;;;;;;10288864;28;20084;-70
2023/04/05 12:10:10;;;;;;;22.27;11.95;;;;;;;;;;10290850;28;20134;-70
2023/04/05 12:15:10;;;;;;;9.60;8.60;;;;;;;;;;10291534;28;20071;-70
2023/04/05 12:20:11;;;;;;;10.30;9.18;;;;;;;;;;10290919;28;20509;-70
2023/04/05 12:25:09;;;;;;;8.43;7.18;;;;;;;;;;10289237;28;20126;-70
2023/04/05 12:30:09;;;;;;;8.32;7.55;;;;;;;;;;10291181;28;20091;-71
2023/04/05 12:35:10;;;;;;;10.48;8.00;;;;;;;;;;10296593;28;20096;-70
2023/04/05 12:40:10;;;;;;;11.10;8.20;;;;;;;;;;10289713;28;20080;-70
2023/04/05 12:45:12;;;;;;;7.05;6.35;;;;;;;;;;10288977;28;20091;-70
2023/04/05 12:50:11;;;;;;;8.02;6.38;;;;;;;;;;10289059;28;20467;-70
2023/04/05 12:55:16;;;;;;;14.93;10.63;;;;;;;;;;10289755;28;20069;-70
2023/04/05 13:00:14;;;;;;;11.88;8.95;;;;;;;;;;10289567;28;20083;-70
2023/04/05 13:05:13;;;;;;;17.38;10.60;;;;;;;;;;10288930;28;20077;-70
2023/04/05 13:10:11;;;;;;;9.35;7.03;;;;;;;;;;10291071;28;20064;-71
2023/04/05 13:15:11;;;;;;;8.68;6.53;;;;;;;;;;10298066;28;20061;-71
2023/04/05 13:20:09;;;;;;;7.40;6.63;;;;;;;;;;10296482;28;20068;-71
2023/04/05 13:25:09;;;;;;;8.75;6.95;;;;;;;;;;10296271;28;20536;-70
2023/04/05 13:30:08;;;;;;;9.30;6.95;;;;;;;;;;10294584;28;20084;-70
2023/04/05 13:35:08;;;;;;;9.98;7.50;;;;;;;;;;10295920;28;20079;-70
2023/04/05 13:40:06;;;;;;;14.98;10.23;;;;;;;;;;10296235;28;20099;-71
2023/04/05 13:45:05;;;;;;;9.95;7.65;;;;;;;;;;10295815;28;20093;-71
2023/04/05 13:50:07;;;;;;;6.15;5.55;;;;;;;;;;10295177;28;20079;-70
2023/04/05 13:55:06;;;;;;;9.98;8.75;;;;;;;;;;10295594;28;20110;-70
2023/04/05 14:00:05;;;;;;;8.10;6.47;;;;;;;;;;10295983;28;20099;-70
2023/04/05 14:05:08;;;;;;;;;;;;;;;;;;10298790;28;20218;-68
2023/04/05 14:10:10;;;;;;;10.35;8.98;;;;;;;;;;10292943;28;19951;-69
2023/04/05 14:15:08;;;;;;;10.00;8.68;;;;;;;;;;10293005;28;20103;-69
2023/04/05 14:20:07;;;;;;;10.68;9.57;;;;;;;;;;10293362;28;20502;-70
2023/04/05 14:25:07;;;;;;;51.03;34.40;;;;;;;;;;10292047;28;20076;-69
2023/04/05 14:30:07;;;;;;;75.25;51.72;;;;;;;;;;10292301;28;20077;-70
2023/04/05 14:35:06;;;;;;;35.90;28.95;;;;;;;;;;10294581;28;20071;-69
2023/04/05 14:40:05;;;;;;;40.92;27.83;;;;;;;;;;10298532;28;20060;-69
2023/04/05 14:45:03;;;;;;;38.45;25.15;;;;;;;;;;10297582;28;20057;-67
2023/04/05 14:50:03;;;;;;;30.15;19.70;;;;;;;;;;10292969;28;20549;-70
2023/04/05 14:55:01;;;;;;;24.50;18.50;;;;;;;;;;10291309;28;20080;-70
2023/04/05 15:00:00;;;;;;;22.63;16.23;;;;;;;;;;10291692;28;20079;-68
2023/04/05 15:04:59;;;;;;;23.60;18.88;;;;;;;;;;10285610;28;20095;-71
2023/04/05 15:09:59;;;;;;;43.45;28.67;;;;;;;;;;10283231;28;20068;-71
2023/04/05 15:14:57;;;;;;;24.60;12.73;;;;;;;;;;10283484;28;20072;-71
2023/04/05 15:19:55;;;;;;;112.22;62.25;;;;;;;;;;10291226;28;20069;-71
2023/04/05 15:24:55;;;;;;;42.17;26.70;;;;;;;;;;10292094;28;20068;-71
2023/04/05 15:29:54;;;;;;;35.45;21.17;;;;;;;;;;10288910;28;20542;-71
2023/04/05 15:34:53;;;;;;;54.92;33.33;;;;;;;;;;10289615;28;20505;-70
2023/04/05 15:39:51;;;;;;;103.03;57.90;;;;;;;;;;10290207;28;20084;-70
2023/04/05 15:44:49;;;;;;;69.10;41.95;;;;;;;;;;10291285;28;20477;-70
2023/04/05 15:49:50;;;;;;;72.45;42.40;;;;;;;;;;10289433;28;20065;-68
2023/04/05 15:54:48;;;;;;;52.53;32.42;;;;;;;;;;10291321;28;20522;-70
2023/04/05 15:59:47;;;;;;;37.22;26.05;;;;;;;;;;10290974;28;20061;-69
2023/04/05 16:04:45;;;;;;;21.38;17.13;;;;;;;;;;10287947;28;20071;-68
2023/04/05 16:09:45;;;;;;;38.72;24.52;;;;;;;;;;10285732;28;20079;-68
2023/04/05 16:14:43;;;;;;;34.95;23.17;;;;;;;;;;10289197;28;20072;-69
2023/04/05 16:19:41;;;;;;;34.90;21.65;;;;;;;;;;10286115;28;20068;-68
2023/04/05 16:24:39;;;;;;;34.25;24.30;;;;;;;;;;10283754;28;20068;-68
2023/04/05 16:29:39;;;;;;;34.55;24.10;;;;;;;;;;10285566;28;20080;-69
2023/04/05 16:34:37;;;;;;;31.38;23.15;;;;;;;;;;10286835;28;20076;-68
2023/04/05 16:39:36;;;;;;;27.73;22.52;;;;;;;;;;10287813;28;20076;-68
2023/04/05 16:44:34;;;;;;;25.48;19.98;;;;;;;;;;10286238;28;20036;-69
2023/04/05 16:49:34;;;;;;;15.75;13.05;;;;;;;;;;10295696;28;20100;-70
2023/04/05 16:54:34;;;;;;;21.70;17.30;;;;;;;;;;10295640;28;20067;-69
2023/04/05 16:59:32;;;;;;;26.67;20.17;;;;;;;;;;10297377;28;20067;-69
2023/04/05 17:04:31;;;;;;;27.05;20.67;;;;;;;;;;10296524;28;20068;-69
2023/04/05 17:09:31;;;;;;;24.25;18.52;;;;;;;;;;10293537;28;20486;-68
2023/04/05 17:14:30;;;;;;;118.70;65.82;;;;;;;;;;10295865;28;20068;-69
2023/04/05 17:19:28;;;;;;;45.58;31.33;;;;;;;;;;10295019;28;20075;-69
2023/04/05 17:24:26;;;;;;;43.05;27.13;;;;;;;;;;10290096;28;20474;-68
2023/04/05 17:29:26;;;;;;;77.65;46.92;;;;;;;;;;10286287;28;20061;-69
2023/04/05 17:34:24;;;;;;;26.48;20.30;;;;;;;;;;10290777;28;20087;-70
2023/04/05 17:39:22;;;;;;;51.67;37.38;;;;;;;;;;10292506;28;20495;-69
2023/04/05 17:44:21;;;;;;;41.15;29.13;;;;;;;;;;10291729;28;20062;-67
2023/04/05 17:49:20;;;;;;;18.45;16.02;;;;;;;;;;10293664;28;20072;-69
2023/04/05 17:54:19;;;;;;;55.03;39.35;;;;;;;;;;10294474;28;20079;-70
2023/04/05 17:59:17;;;;;;;36.25;26.40;;;;;;;;;;10291010;28;20494;-69
2023/04/05 18:04:15;;;;;;;59.72;37.78;;;;;;;;;;10290606;28;20037;-69
2023/04/05 18:09:15;;;;;;;34.53;24.08;;;;;;;;;;10290278;28;20086;-69
2023/04/05 18:14:14;;;;;;;47.42;31.50;;;;;;;;;;10292304;28;20463;-69
2023/04/05 18:19:16;;;;;;;30.95;24.45;;;;;;;;;;10293287;28;20549;-69
2023/04/05 18:24:16;;;;;;;15.73;13.73;;;;;;;;;;10283566;28;20064;-68
2023/04/05 18:29:14;;;;;;;24.92;19.13;;;;;;;;;;10288053;28;20107;-69
2023/04/05 18:34:12;;;;;;;23.63;18.20;;;;;;;;;;10293010;28;20071;-69
2023/04/05 18:39:11;;;;;;;20.00;16.42;;;;;;;;;;10293823;28;20083;-69
2023/04/05 18:44:13;;;;;;;19.00;16.08;;;;;;;;;;10291838;28;20075;-68
2023/04/05 18:49:14;;;;;;;38.28;24.70;;;;;;;;;;10294934;28;20075;-69
2023/04/05 18:54:12;;;;;;;14.70;13.30;;;;;;;;;;10300487;28;20049;-68
2023/04/05 18:59:11;;;;;;;16.38;14.32;;;;;;;;;;10291262;28;20109;-69
2023/04/05 19:04:11;;;;;;;18.25;14.90;;;;;;;;;;10292160;28;20068;-69
2023/04/05 19:09:09;;;;;;;12.77;11.27;;;;;;;;;;10299937;28;20057;-69
2023/04/05 19:14:07;;;;;;;9.80;8.80;;;;;;;;;;10298952;28;20056;-69
2023/04/05 19:19:06;;;;;;;25.17;16.10;;;;;;;;;;10294454;28;20037;-69
2023/04/05 19:24:08;;;;;;;45.97;30.10;;;;;;;;;;10292040;28;20071;-69
2023/04/05 19:29:06;;;;;;;50.17;31.38;;;;;;;;;;10289478;28;20083;-69
2023/04/05 19:34:06;;;;;;;25.17;18.95;;;;;;;;;;10291917;28;20064;-68
2023/04/05 19:39:06;;;;;;;20.83;16.50;;;;;;;;;;10287437;28;20073;-69
2023/04/05 19:44:07;;;;;;;22.00;15.68;;;;;;;;;;10287553;28;20064;-69
2023/04/05 19:49:08;;;;;;;14.57;12.80;;;;;;;;;;10286628;28;20076;-68
2023/04/05 19:54:11;;;;;;;17.25;14.45;;;;;;;;;;10287747;28;20079;-67
2023/04/05 19:59:27;;;;;;;18.08;14.95;;;;;;;;;;10290744;28;20467;-69
2023/04/05 20:04:27;;;;;;;18.40;14.90;;;;;;;;;;10285628;28;20060;-69
2023/04/05 20:09:28;;;;;;;17.52;14.35;;;;;;;;;;10287349;28;20072;-68
2023/04/05 20:14:27;;;;;;;16.50;13.27;;;;;;;;;;10287474;28;20505;-68
2023/04/05 20:19:27;;;;;;;14.27;12.43;;;;;;;;;;10285836;28;20060;-67
2023/04/05 20:24:28;;;;;;;13.60;11.88;;;;;;;;;;10291383;28;20067;-68
2023/04/05 20:29:27;;;;;;;17.45;12.07;;;;;;;;;;10287621;28;20068;-68
2023/04/05 20:34:28;;;;;;;14.13;11.35;;;;;;;;;;10297059;28;20048;-68
2023/04/05 20:39:27;;;;;;;14.10;11.80;;;;;;;;;;10288422;28;20083;-68
2023/04/05 20:44:27;;;;;;;12.45;11.25;;;;;;;;;;10287512;28;20049;-68
2023/04/05 20:49:26;;;;;;;12.73;10.05;;;;;;;;;;10293939;28;20325;-68
2023/04/05 20:54:25;;;;;;;13.77;10.60;;;;;;;;;;10288393;28;20079;-68
2023/04/05 20:59:25;;;;;;;14.68;11.68;;;;;;;;;;10290387;28;20080;-68
2023/04/05 21:04:23;;;;;;;12.63;10.02;;;;;;;;;;10288752;28;20068;-68
2023/04/05 21:09:22;;;;;;;14.20;11.98;;;;;;;;;;10287038;28;20076;-68
2023/04/05 21:14:20;;;;;;;12.35;9.98;;;;;;;;;;10288023;28;20079;-68
2023/04/05 21:19:20;;;;;;;11.55;9.75;;;;;;;;;;10283290;28;20073;-68
2023/04/05 21:24:18;;;;;;;11.32;9.68;;;;;;;;;;10276201;28;20537;-68
2023/04/05 21:29:16;;;;;;;19.55;13.23;;;;;;;;;;10276434;28;20080;-69
2023/04/05 21:34:15;;;;;;;28.50;18.75;;;;;;;;;;10284723;28;20056;-68
2023/04/05 21:39:14;;;;;;;24.17;15.57;;;;;;;;;;10292434;28;20083;-68
2023/04/05 21:44:13;;;;;;;10.23;9.18;;;;;;;;;;10294546;28;20064;-68
2023/04/05 21:49:11;;;;;;;13.25;10.75;;;;;;;;;;10294045;28;20079;-68
2023/04/05 21:54:10;;;;;;;15.40;12.18;;;;;;;;;;10293727;28;20475;-68
2023/04/05 21:59:09;;;;;;;28.80;20.00;;;;;;;;;;10294758;28;20077;-68
2023/04/05 22:04:08;;;;;;;15.55;13.57;;;;;;;;;;10295869;28;20079;-68
2023/04/05 22:09:06;;;;;;;23.48;15.35;;;;;;;;;;10297671;28;20431;-68
2023/04/05 22:14:05;;;;;;;16.77;12.18;;;;;;;;;;10293827;28;20453;-68
2023/04/05 22:19:06;;;;;;;15.75;12.45;;;;;;;;;;10294150;28;20069;-69
2023/04/05 22:24:05;;;;;;;39.72;17.52;;;;;;;;;;10291098;28;20072;-68
2023/04/05 22:29:03;;;;;;;19.13;12.25;;;;;;;;;;10295458;28;20084;-68
2023/04/05 22:34:02;;;;;;;37.92;21.05;;;;;;;;;;10292537;28;20434;-68
2023/04/05 22:39:01;;;;;;;43.80;22.48;;;;;;;;;;10289166;28;20099;-68
2023/04/05 22:44:00;;;;;;;29.20;19.92;;;;;;;;;;10291584;28;20447;-68
2023/04/05 22:48:58;;;;;;;29.42;22.88;;;;;;;;;;10292422;28;20120;-68
2023/04/05 22:53:56;;;;;;;38.95;25.92;;;;;;;;;;10292654;28;20482;-68
2023/04/05 22:58:56;;;;;;;17.95;14.90;;;;;;;;;;10294201;28;20076;-68
2023/04/05 23:03:54;;;;;;;16.63;13.57;;;;;;;;;;10291906;28;20072;-68
2023/04/05 23:08:52;;;;;;;12.90;11.55;;;;;;;;;;10292506;28;20103;-68
2023/04/05 23:13:50;;;;;;;18.70;15.43;;;;;;;;;;10291011;28;20230;-68
2023/04/05 23:18:50;;;;;;;19.02;14.18;;;;;;;;;;10296642;28;20532;-68
2023/04/05 23:23:49;;;;;;;18.33;13.35;;;;;;;;;;10290779;28;20529;-69
2023/04/05 23:28:47;;;;;;;22.00;16.60;;;;;;;;;;10289827;28;20099;-69
2023/04/05 23:33:45;;;;;;;18.20;14.95;;;;;;;;;;10286806;28;20502;-69
2023/04/05 23:38:45;;;;;;;15.02;13.00;;;;;;;;;;10294265;28;20505;-69
2023/04/05 23:43:43;;;;;;;30.15;19.35;;;;;;;;;;10288437;28;20075;-69
2023/04/05 23:48:41;;;;;;;14.48;12.98;;;;;;;;;;10287947;28;20076;-68
2023/04/05 23:53:40;;;;;;;14.05;12.65;;;;;;;;;;10289059;28;20074;-69
2023/04/05 23:58:40;;;;;;;14.82;11.80;;;;;;;;;;10288115;28;20075;-69
